sensor_id;sensor_type;location;lat;lon;timestamp;temperature;humidity
68011;DHT22;54794;48.348;7.878;2023-03-14T00:02:14;14.90;59.00
68011;DHT22;54794;48.348;7.878;2023-03-14T00:04:41;14.80;59.70
68011;DHT22;54794;48.348;7.878;2023-03-14T00:07:11;14.80;59.00
68011;DHT22;54794;48.348;7.878;2023-03-14T00:09:38;14.80;59.40
68011;DHT22;54794;48.348;7.878;2023-03-14T00:12:05;14.80;59.20
68011;DHT22;54794;48.348;7.878;2023-03-14T00:14:33;14.80;59.50
68011;DHT22;54794;48.348;7.878;2023-03-14T00:17:00;14.80;59.10
68011;DHT22;54794;48.348;7.878;2023-03-14T00:19:28;14.80;59.90
68011;DHT22;54794;48.348;7.878;2023-03-14T00:21:54;14.80;59.30
68011;DHT22;54794;48.348;7.878;2023-03-14T00:24:21;14.70;59.40
68011;DHT22;54794;48.348;7.878;2023-03-14T00:26:48;14.70;59.20
68011;DHT22;54794;48.348;7.878;2023-03-14T00:29:15;14.70;59.70
68011;DHT22;54794;48.348;7.878;2023-03-14T00:31:42;14.70;59.40
68011;DHT22;54794;48.348;7.878;2023-03-14T00:34:09;14.70;59.60
68011;DHT22;54794;48.348;7.878;2023-03-14T00:36:36;14.70;59.70
68011;DHT22;54794;48.348;7.878;2023-03-14T00:39:03;14.70;59.40
68011;DHT22;54794;48.348;7.878;2023-03-14T00:41:30;14.70;59.50
68011;DHT22;54794;48.348;7.878;2023-03-14T00:43:57;14.60;59.70
68011;DHT22;54794;48.348;7.878;2023-03-14T00:46:24;14.60;59.70
68011;DHT22;54794;48.348;7.878;2023-03-14T00:48:51;14.60;59.60
68011;DHT22;54794;48.348;7.878;2023-03-14T00:51:18;14.60;59.60
68011;DHT22;54794;48.348;7.878;2023-03-14T00:53:45;14.60;59.60
68011;DHT22;54794;48.348;7.878;2023-03-14T00:56:12;14.50;60.00
68011;DHT22;54794;48.348;7.878;2023-03-14T00:58:39;14.50;59.60
68011;DHT22;54794;48.348;7.878;2023-03-14T01:01:09;14.50;59.80
68011;DHT22;54794;48.348;7.878;2023-03-14T01:03:37;14.50;59.80
68011;DHT22;54794;48.348;7.878;2023-03-14T01:08:43;14.50;60.10
68011;DHT22;54794;48.348;7.878;2023-03-14T01:11:14;14.50;60.00
68011;DHT22;54794;48.348;7.878;2023-03-14T01:13:45;14.50;60.00
68011;DHT22;54794;48.348;7.878;2023-03-14T01:16:13;14.50;60.00
68011;DHT22;54794;48.348;7.878;2023-03-14T01:18:42;14.40;59.70
68011;DHT22;54794;48.348;7.878;2023-03-14T01:21:15;14.40;59.90
68011;DHT22;54794;48.348;7.878;2023-03-14T01:23:44;14.40;59.90
68011;DHT22;54794;48.348;7.878;2023-03-14T01:26:15;14.40;59.70
68011;DHT22;54794;48.348;7.878;2023-03-14T01:28:46;14.40;59.90
68011;DHT22;54794;48.348;7.878;2023-03-14T01:31:14;14.40;60.10
68011;DHT22;54794;48.348;7.878;2023-03-14T01:33:41;14.40;60.30
68011;DHT22;54794;48.348;7.878;2023-03-14T01:36:09;14.30;60.20
68011;DHT22;54794;48.348;7.878;2023-03-14T01:38:38;14.30;60.20
68011;DHT22;54794;48.348;7.878;2023-03-14T01:41:07;14.30;60.20
68011;DHT22;54794;48.348;7.878;2023-03-14T01:43:38;14.30;60.40
68011;DHT22;54794;48.348;7.878;2023-03-14T01:48:39;14.20;60.20
68011;DHT22;54794;48.348;7.878;2023-03-14T01:51:20;14.20;60.10
68011;DHT22;54794;48.348;7.878;2023-03-14T01:53:51;14.20;60.90
68011;DHT22;54794;48.348;7.878;2023-03-14T01:56:21;14.20;60.00
68011;DHT22;54794;48.348;7.878;2023-03-14T01:58:50;14.20;60.00
68011;DHT22;54794;48.348;7.878;2023-03-14T02:01:21;14.20;60.10
68011;DHT22;54794;48.348;7.878;2023-03-14T02:03:55;14.10;59.90
68011;DHT22;54794;48.348;7.878;2023-03-14T02:06:27;14.10;59.90
68011;DHT22;54794;48.348;7.878;2023-03-14T02:09:00;14.10;60.00
68011;DHT22;54794;48.348;7.878;2023-03-14T02:11:29;14.10;59.80
68011;DHT22;54794;48.348;7.878;2023-03-14T02:13:58;14.10;60.00
68011;DHT22;54794;48.348;7.878;2023-03-14T02:16:26;14.10;59.70
68011;DHT22;54794;48.348;7.878;2023-03-14T02:18:53;14.10;59.80
68011;DHT22;54794;48.348;7.878;2023-03-14T02:21:25;14.10;60.00
68011;DHT22;54794;48.348;7.878;2023-03-14T02:24:21;14.10;60.10
68011;DHT22;54794;48.348;7.878;2023-03-14T02:27:14;14.00;59.80
68011;DHT22;54794;48.348;7.878;2023-03-14T02:32:25;14.00;60.70
68011;DHT22;54794;48.348;7.878;2023-03-14T02:34:56;14.00;59.80
68011;DHT22;54794;48.348;7.878;2023-03-14T02:37:30;14.00;60.30
68011;DHT22;54794;48.348;7.878;2023-03-14T02:40:03;14.00;60.00
68011;DHT22;54794;48.348;7.878;2023-03-14T02:42:31;14.00;60.20
68011;DHT22;54794;48.348;7.878;2023-03-14T02:47:43;13.90;59.90
68011;DHT22;54794;48.348;7.878;2023-03-14T02:50:27;13.90;60.00
68011;DHT22;54794;48.348;7.878;2023-03-14T02:52:57;13.90;59.80
68011;DHT22;54794;48.348;7.878;2023-03-14T02:55:24;13.90;60.40
68011;DHT22;54794;48.348;7.878;2023-03-14T02:57:53;13.90;59.80
68011;DHT22;54794;48.348;7.878;2023-03-14T03:00:20;13.90;59.70
68011;DHT22;54794;48.348;7.878;2023-03-14T03:02:47;13.90;59.90
68011;DHT22;54794;48.348;7.878;2023-03-14T03:05:14;13.90;59.70
68011;DHT22;54794;48.348;7.878;2023-03-14T03:07:41;13.90;59.70
68011;DHT22;54794;48.348;7.878;2023-03-14T03:10:09;13.90;59.70
68011;DHT22;54794;48.348;7.878;2023-03-14T03:12:36;13.90;59.70
68011;DHT22;54794;48.348;7.878;2023-03-14T03:15:03;13.90;59.70
68011;DHT22;54794;48.348;7.878;2023-03-14T03:17:30;13.90;59.80
68011;DHT22;54794;48.348;7.878;2023-03-14T03:19:57;13.90;59.80
68011;DHT22;54794;48.348;7.878;2023-03-14T03:22:24;13.90;59.50
68011;DHT22;54794;48.348;7.878;2023-03-14T03:24:51;13.90;59.70
68011;DHT22;54794;48.348;7.878;2023-03-14T03:27:18;13.90;59.90
68011;DHT22;54794;48.348;7.878;2023-03-14T03:29:45;13.90;59.60
68011;DHT22;54794;48.348;7.878;2023-03-14T03:32:12;13.90;59.60
68011;DHT22;54794;48.348;7.878;2023-03-14T03:34:38;13.80;59.50
68011;DHT22;54794;48.348;7.878;2023-03-14T03:37:05;13.80;59.50
68011;DHT22;54794;48.348;7.878;2023-03-14T03:39:32;13.80;59.50
68011;DHT22;54794;48.348;7.878;2023-03-14T03:41:59;13.80;59.50
68011;DHT22;54794;48.348;7.878;2023-03-14T03:44:26;13.80;59.50
68011;DHT22;54794;48.348;7.878;2023-03-14T03:46:53;13.80;59.50
68011;DHT22;54794;48.348;7.878;2023-03-14T03:49:20;13.80;59.40
68011;DHT22;54794;48.348;7.878;2023-03-14T03:51:47;13.80;59.40
68011;DHT22;54794;48.348;7.878;2023-03-14T03:54:14;13.80;59.50
68011;DHT22;54794;48.348;7.878;2023-03-14T03:56:41;13.80;59.80
68011;DHT22;54794;48.348;7.878;2023-03-14T03:59:08;13.80;59.40
68011;DHT22;54794;48.348;7.878;2023-03-14T04:01:35;13.70;59.30
68011;DHT22;54794;48.348;7.878;2023-03-14T04:04:02;13.80;59.30
68011;DHT22;54794;48.348;7.878;2023-03-14T04:06:29;13.70;59.30
68011;DHT22;54794;48.348;7.878;2023-03-14T04:08:59;13.70;59.90
68011;DHT22;54794;48.348;7.878;2023-03-14T04:11:27;13.80;59.30
68011;DHT22;54794;48.348;7.878;2023-03-14T04:13:54;13.70;59.30
68011;DHT22;54794;48.348;7.878;2023-03-14T04:16:23;13.80;59.50
68011;DHT22;54794;48.348;7.878;2023-03-14T04:18:51;13.80;59.50
68011;DHT22;54794;48.348;7.878;2023-03-14T04:21:19;13.70;59.40
68011;DHT22;54794;48.348;7.878;2023-03-14T04:23:46;13.70;59.40
68011;DHT22;54794;48.348;7.878;2023-03-14T04:26:12;13.70;59.30
68011;DHT22;54794;48.348;7.878;2023-03-14T04:28:39;13.70;59.40
68011;DHT22;54794;48.348;7.878;2023-03-14T04:31:08;13.70;59.30
68011;DHT22;54794;48.348;7.878;2023-03-14T04:33:37;13.70;59.40
68011;DHT22;54794;48.348;7.878;2023-03-14T04:36:05;13.70;59.30
68011;DHT22;54794;48.348;7.878;2023-03-14T04:38:33;13.70;59.40
68011;DHT22;54794;48.348;7.878;2023-03-14T04:41:00;13.70;59.30
68011;DHT22;54794;48.348;7.878;2023-03-14T04:43:27;13.70;59.30
68011;DHT22;54794;48.348;7.878;2023-03-14T04:45:55;13.70;59.80
68011;DHT22;54794;48.348;7.878;2023-03-14T04:48:24;13.70;59.20
68011;DHT22;54794;48.348;7.878;2023-03-14T04:50:53;13.70;59.20
68011;DHT22;54794;48.348;7.878;2023-03-14T04:53:20;13.60;59.20
68011;DHT22;54794;48.348;7.878;2023-03-14T04:55:52;13.60;59.30
68011;DHT22;54794;48.348;7.878;2023-03-14T04:58:22;13.60;59.30
68011;DHT22;54794;48.348;7.878;2023-03-14T05:00:50;13.70;59.20
68011;DHT22;54794;48.348;7.878;2023-03-14T05:03:18;13.70;59.20
68011;DHT22;54794;48.348;7.878;2023-03-14T05:05:45;13.60;59.20
68011;DHT22;54794;48.348;7.878;2023-03-14T05:08:12;13.60;59.10
68011;DHT22;54794;48.348;7.878;2023-03-14T05:10:39;13.60;59.20
68011;DHT22;54794;48.348;7.878;2023-03-14T05:13:06;13.60;59.10
68011;DHT22;54794;48.348;7.878;2023-03-14T05:15:33;13.60;59.10
68011;DHT22;54794;48.348;7.878;2023-03-14T05:18:00;13.60;59.10
68011;DHT22;54794;48.348;7.878;2023-03-14T05:20:27;13.60;59.00
68011;DHT22;54794;48.348;7.878;2023-03-14T05:22:54;13.60;59.10
68011;DHT22;54794;48.348;7.878;2023-03-14T05:25:21;13.60;59.10
68011;DHT22;54794;48.348;7.878;2023-03-14T05:27:47;13.60;59.10
68011;DHT22;54794;48.348;7.878;2023-03-14T05:30:14;13.60;59.10
68011;DHT22;54794;48.348;7.878;2023-03-14T05:32:42;13.60;59.20
68011;DHT22;54794;48.348;7.878;2023-03-14T05:35:09;13.60;59.10
68011;DHT22;54794;48.348;7.878;2023-03-14T05:37:36;13.60;59.20
68011;DHT22;54794;48.348;7.878;2023-03-14T05:40:05;13.60;59.10
68011;DHT22;54794;48.348;7.878;2023-03-14T05:42:35;13.60;59.20
68011;DHT22;54794;48.348;7.878;2023-03-14T05:45:02;13.60;59.20
68011;DHT22;54794;48.348;7.878;2023-03-14T05:47:29;13.60;59.10
68011;DHT22;54794;48.348;7.878;2023-03-14T05:49:56;13.70;59.40
68011;DHT22;54794;48.348;7.878;2023-03-14T05:52:23;13.70;59.10
68011;DHT22;54794;48.348;7.878;2023-03-14T05:54:50;13.70;59.00
68011;DHT22;54794;48.348;7.878;2023-03-14T05:57:19;13.70;59.00
68011;DHT22;54794;48.348;7.878;2023-03-14T05:59:46;13.70;58.90
68011;DHT22;54794;48.348;7.878;2023-03-14T06:02:13;13.70;59.10
68011;DHT22;54794;48.348;7.878;2023-03-14T06:04:42;13.70;59.00
68011;DHT22;54794;48.348;7.878;2023-03-14T06:07:09;13.70;59.00
68011;DHT22;54794;48.348;7.878;2023-03-14T06:09:35;13.70;59.00
68011;DHT22;54794;48.348;7.878;2023-03-14T06:12:03;13.70;59.50
68011;DHT22;54794;48.348;7.878;2023-03-14T06:14:30;13.80;58.90
68011;DHT22;54794;48.348;7.878;2023-03-14T06:16:57;13.70;58.90
68011;DHT22;54794;48.348;7.878;2023-03-14T06:19:25;13.80;59.00
68011;DHT22;54794;48.348;7.878;2023-03-14T06:21:52;13.80;59.40
68011;DHT22;54794;48.348;7.878;2023-03-14T06:24:19;13.80;59.50
68011;DHT22;54794;48.348;7.878;2023-03-14T06:26:46;13.80;59.00
68011;DHT22;54794;48.348;7.878;2023-03-14T06:29:13;13.80;58.90
68011;DHT22;54794;48.348;7.878;2023-03-14T06:31:40;13.80;58.90
68011;DHT22;54794;48.348;7.878;2023-03-14T06:34:07;13.80;58.80
68011;DHT22;54794;48.348;7.878;2023-03-14T06:36:34;13.90;58.90
68011;DHT22;54794;48.348;7.878;2023-03-14T06:39:01;13.90;58.90
68011;DHT22;54794;48.348;7.878;2023-03-14T06:41:28;13.90;58.80
68011;DHT22;54794;48.348;7.878;2023-03-14T06:43:54;13.90;58.90
68011;DHT22;54794;48.348;7.878;2023-03-14T06:46:22;13.90;58.90
68011;DHT22;54794;48.348;7.878;2023-03-14T06:48:49;13.90;58.90
68011;DHT22;54794;48.348;7.878;2023-03-14T06:51:16;13.90;58.90
68011;DHT22;54794;48.348;7.878;2023-03-14T06:53:43;14.00;59.30
68011;DHT22;54794;48.348;7.878;2023-03-14T06:56:10;14.00;58.80
68011;DHT22;54794;48.348;7.878;2023-03-14T06:58:37;14.00;58.70
68011;DHT22;54794;48.348;7.878;2023-03-14T07:01:04;14.00;58.80
68011;DHT22;54794;48.348;7.878;2023-03-14T07:03:31;14.00;58.90
68011;DHT22;54794;48.348;7.878;2023-03-14T07:06:00;14.10;58.80
68011;DHT22;54794;48.348;7.878;2023-03-14T07:08:27;14.10;58.80
68011;DHT22;54794;48.348;7.878;2023-03-14T07:10:56;14.10;58.80
68011;DHT22;54794;48.348;7.878;2023-03-14T07:13:23;14.20;58.70
68011;DHT22;54794;48.348;7.878;2023-03-14T07:15:50;14.20;58.80
68011;DHT22;54794;48.348;7.878;2023-03-14T07:18:17;14.30;58.80
68011;DHT22;54794;48.348;7.878;2023-03-14T07:20:45;14.30;58.80
68011;DHT22;54794;48.348;7.878;2023-03-14T07:23:14;14.30;58.80
68011;DHT22;54794;48.348;7.878;2023-03-14T07:25:41;14.40;58.60
68011;DHT22;54794;48.348;7.878;2023-03-14T07:28:08;14.40;58.70
68011;DHT22;54794;48.348;7.878;2023-03-14T07:30:35;14.50;58.60
68011;DHT22;54794;48.348;7.878;2023-03-14T07:33:02;14.50;58.40
68011;DHT22;54794;48.348;7.878;2023-03-14T07:35:29;14.60;58.50
68011;DHT22;54794;48.348;7.878;2023-03-14T07:37:56;14.60;58.20
68011;DHT22;54794;48.348;7.878;2023-03-14T07:40:23;14.60;58.10
68011;DHT22;54794;48.348;7.878;2023-03-14T07:42:50;14.60;57.70
68011;DHT22;54794;48.348;7.878;2023-03-14T07:45:17;14.60;57.80
68011;DHT22;54794;48.348;7.878;2023-03-14T07:47:44;14.60;57.70
68011;DHT22;54794;48.348;7.878;2023-03-14T07:50:10;14.70;57.60
68011;DHT22;54794;48.348;7.878;2023-03-14T07:52:37;14.60;57.60
68011;DHT22;54794;48.348;7.878;2023-03-14T07:55:05;14.70;57.50
68011;DHT22;54794;48.348;7.878;2023-03-14T07:57:32;14.70;57.50
68011;DHT22;54794;48.348;7.878;2023-03-14T07:59:59;14.60;57.30
68011;DHT22;54794;48.348;7.878;2023-03-14T08:02:26;14.60;57.50
68011;DHT22;54794;48.348;7.878;2023-03-14T08:04:53;14.60;57.40
68011;DHT22;54794;48.348;7.878;2023-03-14T08:07:20;14.60;57.40
68011;DHT22;54794;48.348;7.878;2023-03-14T08:09:48;14.60;57.60
68011;DHT22;54794;48.348;7.878;2023-03-14T08:12:15;14.60;57.70
68011;DHT22;54794;48.348;7.878;2023-03-14T08:14:43;14.60;57.60
68011;DHT22;54794;48.348;7.878;2023-03-14T08:17:10;14.60;57.80
68011;DHT22;54794;48.348;7.878;2023-03-14T08:19:37;14.60;57.60
68011;DHT22;54794;48.348;7.878;2023-03-14T08:22:04;14.60;57.70
68011;DHT22;54794;48.348;7.878;2023-03-14T08:24:31;14.60;57.60
68011;DHT22;54794;48.348;7.878;2023-03-14T08:26:58;14.60;57.80
68011;DHT22;54794;48.348;7.878;2023-03-14T08:29:25;14.60;57.70
68011;DHT22;54794;48.348;7.878;2023-03-14T08:31:52;14.60;57.60
68011;DHT22;54794;48.348;7.878;2023-03-14T08:34:21;14.60;57.70
68011;DHT22;54794;48.348;7.878;2023-03-14T08:36:48;14.60;57.60
68011;DHT22;54794;48.348;7.878;2023-03-14T08:39:15;14.60;57.60
68011;DHT22;54794;48.348;7.878;2023-03-14T08:41:42;14.60;57.50
68011;DHT22;54794;48.348;7.878;2023-03-14T08:44:11;14.60;57.60
68011;DHT22;54794;48.348;7.878;2023-03-14T08:46:38;14.60;57.60
68011;DHT22;54794;48.348;7.878;2023-03-14T08:49:05;14.60;57.80
68011;DHT22;54794;48.348;7.878;2023-03-14T08:51:32;14.60;58.50
68011;DHT22;54794;48.348;7.878;2023-03-14T08:53:59;14.60;58.10
68011;DHT22;54794;48.348;7.878;2023-03-14T08:56:25;14.60;58.10
68011;DHT22;54794;48.348;7.878;2023-03-14T08:58:53;14.60;58.10
68011;DHT22;54794;48.348;7.878;2023-03-14T09:01:20;14.60;58.00
68011;DHT22;54794;48.348;7.878;2023-03-14T09:03:50;14.70;58.10
68011;DHT22;54794;48.348;7.878;2023-03-14T09:06:17;14.70;58.20
68011;DHT22;54794;48.348;7.878;2023-03-14T09:08:45;14.70;58.20
68011;DHT22;54794;48.348;7.878;2023-03-14T09:11:12;14.80;58.10
68011;DHT22;54794;48.348;7.878;2023-03-14T09:13:41;14.80;58.10
68011;DHT22;54794;48.348;7.878;2023-03-14T09:16:08;14.80;58.00
68011;DHT22;54794;48.348;7.878;2023-03-14T09:18:36;14.80;58.00
68011;DHT22;54794;48.348;7.878;2023-03-14T09:21:03;14.80;58.00
68011;DHT22;54794;48.348;7.878;2023-03-14T09:23:30;14.90;57.90
68011;DHT22;54794;48.348;7.878;2023-03-14T09:25:58;14.90;57.80
68011;DHT22;54794;48.348;7.878;2023-03-14T09:28:26;14.90;57.90
68011;DHT22;54794;48.348;7.878;2023-03-14T09:30:54;14.90;57.70
68011;DHT22;54794;48.348;7.878;2023-03-14T09:33:22;15.00;57.50
68011;DHT22;54794;48.348;7.878;2023-03-14T09:35:49;15.00;57.70
68011;DHT22;54794;48.348;7.878;2023-03-14T09:38:17;14.90;57.70
68011;DHT22;54794;48.348;7.878;2023-03-14T09:40:44;15.00;57.60
68011;DHT22;54794;48.348;7.878;2023-03-14T09:43:14;15.00;57.30
68011;DHT22;54794;48.348;7.878;2023-03-14T09:45:44;14.90;58.00
68011;DHT22;54794;48.348;7.878;2023-03-14T09:48:27;14.90;57.60
68011;DHT22;54794;48.348;7.878;2023-03-14T09:50:58;14.90;57.50
68011;DHT22;54794;48.348;7.878;2023-03-14T09:53:43;14.90;58.10
68011;DHT22;54794;48.348;7.878;2023-03-14T09:58:57;14.80;57.80
68011;DHT22;54794;48.348;7.878;2023-03-14T10:01:29;14.80;57.90
68011;DHT22;54794;48.348;7.878;2023-03-14T10:04:11;14.80;58.00
68011;DHT22;54794;48.348;7.878;2023-03-14T10:06:42;14.70;58.50
68011;DHT22;54794;48.348;7.878;2023-03-14T10:09:22;14.70;58.00
68011;DHT22;54794;48.348;7.878;2023-03-14T10:11:57;14.70;58.30
68011;DHT22;54794;48.348;7.878;2023-03-14T10:14:36;14.70;58.30
68011;DHT22;54794;48.348;7.878;2023-03-14T10:17:12;14.60;58.50
68011;DHT22;54794;48.348;7.878;2023-03-14T10:19:58;14.60;58.30
68011;DHT22;54794;48.348;7.878;2023-03-14T10:22:29;14.60;58.70
68011;DHT22;54794;48.348;7.878;2023-03-14T10:25:06;14.50;58.60
68011;DHT22;54794;48.348;7.878;2023-03-14T10:27:53;14.50;58.80
68011;DHT22;54794;48.348;7.878;2023-03-14T10:30:40;14.40;58.70
68011;DHT22;54794;48.348;7.878;2023-03-14T10:33:26;14.40;59.10
68011;DHT22;54794;48.348;7.878;2023-03-14T10:38:48;14.40;59.80
68011;DHT22;54794;48.348;7.878;2023-03-14T10:41:24;14.40;59.30
68011;DHT22;54794;48.348;7.878;2023-03-14T10:43:59;14.40;59.50
68011;DHT22;54794;48.348;7.878;2023-03-14T10:46:31;14.40;59.50
68011;DHT22;54794;48.348;7.878;2023-03-14T10:49:05;14.30;59.50
68011;DHT22;54794;48.348;7.878;2023-03-14T10:51:33;14.40;59.60
68011;DHT22;54794;48.348;7.878;2023-03-14T10:54:13;14.40;59.60
68011;DHT22;54794;48.348;7.878;2023-03-14T10:56:47;14.40;59.80
68011;DHT22;54794;48.348;7.878;2023-03-14T10:59:24;14.30;59.60
68011;DHT22;54794;48.348;7.878;2023-03-14T11:01:58;14.40;59.70
68011;DHT22;54794;48.348;7.878;2023-03-14T11:07:35;14.30;60.00
68011;DHT22;54794;48.348;7.878;2023-03-14T11:10:32;14.30;62.30
68011;DHT22;54794;48.348;7.878;2023-03-14T11:13:23;14.30;61.70
68011;DHT22;54794;48.348;7.878;2023-03-14T11:25:21;14.00;60.40
68011;DHT22;54794;48.348;7.878;2023-03-14T11:28:37;14.00;60.70
68011;DHT22;54794;48.348;7.878;2023-03-14T11:31:16;14.00;60.70
68011;DHT22;54794;48.348;7.878;2023-03-14T11:36:51;13.90;60.30
68011;DHT22;54794;48.348;7.878;2023-03-14T11:39:32;13.90;60.20
68011;DHT22;54794;48.348;7.878;2023-03-14T11:42:11;13.90;60.10
68011;DHT22;54794;48.348;7.878;2023-03-14T11:44:47;13.80;59.90
68011;DHT22;54794;48.348;7.878;2023-03-14T11:47:21;13.80;59.80
68011;DHT22;54794;48.348;7.878;2023-03-14T11:50:16;13.80;59.50
68011;DHT22;54794;48.348;7.878;2023-03-14T11:55:35;13.80;58.80
68011;DHT22;54794;48.348;7.878;2023-03-14T12:00:57;13.90;58.50
68011;DHT22;54794;48.348;7.878;2023-03-14T12:03:52;13.90;58.50
68011;DHT22;54794;48.348;7.878;2023-03-14T12:06:37;13.90;58.50
68011;DHT22;54794;48.348;7.878;2023-03-14T12:09:14;13.90;58.30
68011;DHT22;54794;48.348;7.878;2023-03-14T12:12:01;13.90;57.70
68011;DHT22;54794;48.348;7.878;2023-03-14T12:14:34;13.90;57.70
68011;DHT22;54794;48.348;7.878;2023-03-14T12:43:46;13.40;56.10
68011;DHT22;54794;48.348;7.878;2023-03-14T12:46:22;13.40;56.40
68011;DHT22;54794;48.348;7.878;2023-03-14T12:49:08;13.30;56.10
68011;DHT22;54794;48.348;7.878;2023-03-14T12:52:41;13.30;56.30
68011;DHT22;54794;48.348;7.878;2023-03-14T13:02:19;13.30;54.50
68011;DHT22;54794;48.348;7.878;2023-03-14T13:05:52;13.30;55.20
68011;DHT22;54794;48.348;7.878;2023-03-14T13:08:46;13.40;54.40
68011;DHT22;54794;48.348;7.878;2023-03-14T13:11:38;13.20;55.20
68011;DHT22;54794;48.348;7.878;2023-03-14T13:14:58;13.40;55.40
68011;DHT22;54794;48.348;7.878;2023-03-14T13:21:24;13.10;54.90
68011;DHT22;54794;48.348;7.878;2023-03-14T13:24:23;13.10;55.00
68011;DHT22;54794;48.348;7.878;2023-03-14T13:37:59;12.80;54.10
68011;DHT22;54794;48.348;7.878;2023-03-14T13:40:43;12.90;54.70
68011;DHT22;54794;48.348;7.878;2023-03-14T13:46:21;12.90;54.30
68011;DHT22;54794;48.348;7.878;2023-03-14T13:49:01;12.90;54.20
68011;DHT22;54794;48.348;7.878;2023-03-14T13:51:31;12.90;54.50
68011;DHT22;54794;48.348;7.878;2023-03-14T13:54:02;12.90;54.00
68011;DHT22;54794;48.348;7.878;2023-03-14T13:56:33;12.90;54.30
68011;DHT22;54794;48.348;7.878;2023-03-14T13:59:00;12.90;54.20
68011;DHT22;54794;48.348;7.878;2023-03-14T14:01:32;13.00;54.70
68011;DHT22;54794;48.348;7.878;2023-03-14T14:04:20;13.10;54.50
68011;DHT22;54794;48.348;7.878;2023-03-14T14:07:06;13.10;52.60
68011;DHT22;54794;48.348;7.878;2023-03-14T14:09:48;13.10;51.90
68011;DHT22;54794;48.348;7.878;2023-03-14T14:15:02;13.10;52.40
68011;DHT22;54794;48.348;7.878;2023-03-14T14:17:44;13.10;51.60
68011;DHT22;54794;48.348;7.878;2023-03-14T14:20:22;13.10;52.20
68011;DHT22;54794;48.348;7.878;2023-03-14T14:23:00;13.10;52.80
68011;DHT22;54794;48.348;7.878;2023-03-14T14:25:29;13.10;52.90
68011;DHT22;54794;48.348;7.878;2023-03-14T14:27:56;13.10;52.40
68011;DHT22;54794;48.348;7.878;2023-03-14T14:30:28;13.10;53.20
68011;DHT22;54794;48.348;7.878;2023-03-14T14:33:20;13.10;53.00
68011;DHT22;54794;48.348;7.878;2023-03-14T14:35:56;13.10;52.40
68011;DHT22;54794;48.348;7.878;2023-03-14T14:38:26;13.10;52.50
68011;DHT22;54794;48.348;7.878;2023-03-14T14:41:01;13.00;52.90
68011;DHT22;54794;48.348;7.878;2023-03-14T14:43:32;13.00;52.30
68011;DHT22;54794;48.348;7.878;2023-03-14T14:46:06;13.00;52.90
68011;DHT22;54794;48.348;7.878;2023-03-14T14:48:38;12.90;52.90
68011;DHT22;54794;48.348;7.878;2023-03-14T14:51:07;12.90;53.10
68011;DHT22;54794;48.348;7.878;2023-03-14T14:53:39;13.00;53.70
68011;DHT22;54794;48.348;7.878;2023-03-14T14:56:21;13.00;52.80
68011;DHT22;54794;48.348;7.878;2023-03-14T14:59:01;13.00;53.10
68011;DHT22;54794;48.348;7.878;2023-03-14T15:01:37;13.10;53.30
68011;DHT22;54794;48.348;7.878;2023-03-14T15:04:11;13.10;53.90
68011;DHT22;54794;48.348;7.878;2023-03-14T15:06:45;13.20;53.40
68011;DHT22;54794;48.348;7.878;2023-03-14T15:09:14;13.20;53.30
68011;DHT22;54794;48.348;7.878;2023-03-14T15:11:44;13.30;53.60
68011;DHT22;54794;48.348;7.878;2023-03-14T15:14:11;13.30;53.10
68011;DHT22;54794;48.348;7.878;2023-03-14T15:16:38;13.30;53.70
68011;DHT22;54794;48.348;7.878;2023-03-14T15:19:22;13.30;52.30
68011;DHT22;54794;48.348;7.878;2023-03-14T15:21:53;13.30;52.50
68011;DHT22;54794;48.348;7.878;2023-03-14T15:24:20;13.30;52.50
68011;DHT22;54794;48.348;7.878;2023-03-14T15:26:48;13.30;53.10
68011;DHT22;54794;48.348;7.878;2023-03-14T15:29:15;13.30;52.90
68011;DHT22;54794;48.348;7.878;2023-03-14T15:31:42;13.20;52.90
68011;DHT22;54794;48.348;7.878;2023-03-14T15:34:10;13.20;53.00
68011;DHT22;54794;48.348;7.878;2023-03-14T15:36:38;13.20;53.00
68011;DHT22;54794;48.348;7.878;2023-03-14T15:39:06;13.30;52.40
68011;DHT22;54794;48.348;7.878;2023-03-14T15:41:33;13.20;52.70
68011;DHT22;54794;48.348;7.878;2023-03-14T15:44:00;13.20;52.50
68011;DHT22;54794;48.348;7.878;2023-03-14T15:46:27;13.20;52.90
68011;DHT22;54794;48.348;7.878;2023-03-14T15:48:56;13.20;52.70
68011;DHT22;54794;48.348;7.878;2023-03-14T15:51:23;13.20;52.60
68011;DHT22;54794;48.348;7.878;2023-03-14T15:53:50;13.20;52.50
68011;DHT22;54794;48.348;7.878;2023-03-14T15:56:19;13.20;52.50
68011;DHT22;54794;48.348;7.878;2023-03-14T15:58:50;13.20;52.50
68011;DHT22;54794;48.348;7.878;2023-03-14T16:01:17;13.10;52.60
68011;DHT22;54794;48.348;7.878;2023-03-14T16:03:45;13.10;52.80
68011;DHT22;54794;48.348;7.878;2023-03-14T16:06:13;13.10;52.80
68011;DHT22;54794;48.348;7.878;2023-03-14T16:08:41;13.10;52.80
68011;DHT22;54794;48.348;7.878;2023-03-14T16:11:10;13.10;52.50
68011;DHT22;54794;48.348;7.878;2023-03-14T16:13:38;13.00;52.50
68011;DHT22;54794;48.348;7.878;2023-03-14T16:16:06;13.00;52.80
68011;DHT22;54794;48.348;7.878;2023-03-14T16:18:36;12.90;53.10
68011;DHT22;54794;48.348;7.878;2023-03-14T16:21:12;12.80;53.40
68011;DHT22;54794;48.348;7.878;2023-03-14T16:23:41;12.80;53.80
68011;DHT22;54794;48.348;7.878;2023-03-14T16:26:11;12.60;53.80
68011;DHT22;54794;48.348;7.878;2023-03-14T16:28:43;12.40;54.00
68011;DHT22;54794;48.348;7.878;2023-03-14T16:31:14;12.30;54.10
68011;DHT22;54794;48.348;7.878;2023-03-14T16:33:46;12.20;54.20
68011;DHT22;54794;48.348;7.878;2023-03-14T16:36:14;12.10;54.20
68011;DHT22;54794;48.348;7.878;2023-03-14T16:38:43;12.00;54.20
68011;DHT22;54794;48.348;7.878;2023-03-14T16:41:15;11.90;54.10
68011;DHT22;54794;48.348;7.878;2023-03-14T16:43:44;11.80;54.20
68011;DHT22;54794;48.348;7.878;2023-03-14T16:46:16;11.80;54.40
68011;DHT22;54794;48.348;7.878;2023-03-14T16:48:44;11.80;55.00
68011;DHT22;54794;48.348;7.878;2023-03-14T16:51:12;11.70;54.40
68011;DHT22;54794;48.348;7.878;2023-03-14T16:53:40;11.70;54.50
68011;DHT22;54794;48.348;7.878;2023-03-14T16:56:07;11.70;54.50
68011;DHT22;54794;48.348;7.878;2023-03-14T16:58:35;11.60;54.30
68011;DHT22;54794;48.348;7.878;2023-03-14T17:01:06;11.60;54.50
68011;DHT22;54794;48.348;7.878;2023-03-14T17:03:38;11.60;54.60
68011;DHT22;54794;48.348;7.878;2023-03-14T17:06:10;11.60;54.60
68011;DHT22;54794;48.348;7.878;2023-03-14T17:08:39;11.60;54.60
68011;DHT22;54794;48.348;7.878;2023-03-14T17:11:06;11.50;54.70
68011;DHT22;54794;48.348;7.878;2023-03-14T17:13:34;11.60;54.80
68011;DHT22;54794;48.348;7.878;2023-03-14T17:16:01;11.50;54.80
68011;DHT22;54794;48.348;7.878;2023-03-14T17:18:30;11.50;54.70
68011;DHT22;54794;48.348;7.878;2023-03-14T17:20:58;11.50;54.70
68011;DHT22;54794;48.348;7.878;2023-03-14T17:23:28;11.50;54.80
68011;DHT22;54794;48.348;7.878;2023-03-14T17:25:56;11.50;54.90